sensor_id;sensor_type;location;lat;lon;timestamp;P1;durP1;ratioP1;P2;durP2;ratioP2
19251;SDS011;9760;50.944;5.304;2022-10-16T00:00:32;3.30;;;0.83;;
19251;SDS011;9760;50.944;5.304;2022-10-16T00:02:58;3.93;;;0.90;;
19251;SDS011;9760;50.944;5.304;2022-10-16T00:05:23;2.80;;;0.80;;
19251;SDS011;9760;50.944;5.304;2022-10-16T00:07:49;3.10;;;1.10;;
19251;SDS011;9760;50.944;5.304;2022-10-16T00:10:17;3.20;;;0.70;;
19251;SDS011;9760;50.944;5.304;2022-10-16T00:12:43;2.70;;;0.90;;
19251;SDS011;9760;50.944;5.304;2022-10-16T00:15:09;2.50;;;0.80;;
19251;SDS011;9760;50.944;5.304;2022-10-16T00:17:35;1.23;;;0.70;;
19251;SDS011;9760;50.944;5.304;2022-10-16T00:20:00;2.27;;;1.20;;
19251;SDS011;9760;50.944;5.304;2022-10-16T00:22:26;1.37;;;0.80;;
19251;SDS011;9760;50.944;5.304;2022-10-16T00:24:51;4.73;;;1.13;;
19251;SDS011;9760;50.944;5.304;2022-10-16T00:27:17;2.10;;;0.67;;
19251;SDS011;9760;50.944;5.304;2022-10-16T00:29:43;1.77;;;0.80;;
19251;SDS011;9760;50.944;5.304;2022-10-16T00:32:08;2.53;;;0.80;;
19251;SDS011;9760;50.944;5.304;2022-10-16T00:34:34;2.00;;;1.00;;
19251;SDS011;9760;50.944;5.304;2022-10-16T00:37:00;1.17;;;0.70;;
19251;SDS011;9760;50.944;5.304;2022-10-16T00:39:25;6.03;;;0.90;;
19251;SDS011;9760;50.944;5.304;2022-10-16T00:41:51;1.33;;;0.63;;
19251;SDS011;9760;50.944;5.304;2022-10-16T00:47:11;2.17;;;0.70;;
19251;SDS011;9760;50.944;5.304;2022-10-16T00:49:42;4.03;;;0.93;;
19251;SDS011;9760;50.944;5.304;2022-10-16T00:52:08;2.73;;;0.50;;
19251;SDS011;9760;50.944;5.304;2022-10-16T00:54:35;1.20;;;0.83;;
19251;SDS011;9760;50.944;5.304;2022-10-16T00:57:02;2.40;;;0.77;;
19251;SDS011;9760;50.944;5.304;2022-10-16T00:59:37;3.43;;;0.90;;
19251;SDS011;9760;50.944;5.304;2022-10-16T01:02:05;2.67;;;0.90;;
19251;SDS011;9760;50.944;5.304;2022-10-16T01:04:44;1.10;;;0.83;;
19251;SDS011;9760;50.944;5.304;2022-10-16T01:07:27;1.07;;;0.73;;
19251;SDS011;9760;50.944;5.304;2022-10-16T01:10:07;2.73;;;1.00;;
19251;SDS011;9760;50.944;5.304;2022-10-16T01:12:40;2.50;;;0.80;;
19251;SDS011;9760;50.944;5.304;2022-10-16T01:15:11;4.00;;;0.73;;
19251;SDS011;9760;50.944;5.304;2022-10-16T01:20:45;3.27;;;1.17;;
19251;SDS011;9760;50.944;5.304;2022-10-16T01:29:03;1.30;;;0.70;;
19251;SDS011;9760;50.944;5.304;2022-10-16T01:31:36;1.57;;;0.80;;
19251;SDS011;9760;50.944;5.304;2022-10-16T01:34:06;1.10;;;0.80;;
19251;SDS011;9760;50.944;5.304;2022-10-16T01:36:38;1.30;;;0.90;;
19251;SDS011;9760;50.944;5.304;2022-10-16T01:39:10;2.03;;;0.80;;
19251;SDS011;9760;50.944;5.304;2022-10-16T01:41:38;2.83;;;0.80;;
19251;SDS011;9760;50.944;5.304;2022-10-16T01:44:10;2.97;;;0.70;;
19251;SDS011;9760;50.944;5.304;2022-10-16T01:46:43;1.83;;;0.80;;
19251;SDS011;9760;50.944;5.304;2022-10-16T01:49:10;1.57;;;0.60;;
19251;SDS011;9760;50.944;5.304;2022-10-16T01:51:38;2.13;;;0.83;;
19251;SDS011;9760;50.944;5.304;2022-10-16T01:54:04;3.70;;;0.90;;
19251;SDS011;9760;50.944;5.304;2022-10-16T01:56:33;0.77;;;0.77;;
19251;SDS011;9760;50.944;5.304;2022-10-16T01:59:02;4.57;;;0.83;;
19251;SDS011;9760;50.944;5.304;2022-10-16T02:01:40;2.60;;;0.90;;
19251;SDS011;9760;50.944;5.304;2022-10-16T02:04:53;1.83;;;0.80;;
19251;SDS011;9760;50.944;5.304;2022-10-16T02:07:09;2.63;;;1.00;;
19251;SDS011;9760;50.944;5.304;2022-10-16T02:09:35;1.23;;;0.87;;
19251;SDS011;9760;50.944;5.304;2022-10-16T02:12:44;2.03;;;1.07;;
19251;SDS011;9760;50.944;5.304;2022-10-16T02:14:53;2.23;;;1.03;;
19251;SDS011;9760;50.944;5.304;2022-10-16T02:17:19;1.03;;;0.80;;
19251;SDS011;9760;50.944;5.304;2022-10-16T02:19:46;2.00;;;0.90;;
19251;SDS011;9760;50.944;5.304;2022-10-16T02:22:15;1.73;;;0.90;;
19251;SDS011;9760;50.944;5.304;2022-10-16T02:24:51;4.63;;;1.03;;
19251;SDS011;9760;50.944;5.304;2022-10-16T02:27:45;2.33;;;0.93;;
19251;SDS011;9760;50.944;5.304;2022-10-16T02:30:20;3.73;;;1.03;;
19251;SDS011;9760;50.944;5.304;2022-10-16T02:32:53;1.57;;;1.00;;
19251;SDS011;9760;50.944;5.304;2022-10-16T02:35:21;0.97;;;0.70;;
19251;SDS011;9760;50.944;5.304;2022-10-16T02:37:49;7.43;;;1.03;;
19251;SDS011;9760;50.944;5.304;2022-10-16T02:40:15;2.53;;;1.00;;
19251;SDS011;9760;50.944;5.304;2022-10-16T02:42:42;2.53;;;0.83;;
19251;SDS011;9760;50.944;5.304;2022-10-16T02:45:08;6.83;;;0.77;;
19251;SDS011;9760;50.944;5.304;2022-10-16T02:47:36;2.00;;;0.70;;
19251;SDS011;9760;50.944;5.304;2022-10-16T02:50:02;1.20;;;1.07;;
19251;SDS011;9760;50.944;5.304;2022-10-16T02:52:28;2.27;;;0.90;;
19251;SDS011;9760;50.944;5.304;2022-10-16T02:54:54;3.17;;;1.07;;
19251;SDS011;9760;50.944;5.304;2022-10-16T02:57:20;2.07;;;0.90;;
19251;SDS011;9760;50.944;5.304;2022-10-16T02:59:45;5.60;;;1.10;;
19251;SDS011;9760;50.944;5.304;2022-10-16T03:02:11;1.73;;;0.70;;
19251;SDS011;9760;50.944;5.304;2022-10-16T03:04:37;1.63;;;0.80;;
19251;SDS011;9760;50.944;5.304;2022-10-16T03:07:03;1.00;;;0.60;;
19251;SDS011;9760;50.944;5.304;2022-10-16T03:09:28;1.73;;;0.80;;
19251;SDS011;9760;50.944;5.304;2022-10-16T03:11:54;1.80;;;0.90;;
19251;SDS011;9760;50.944;5.304;2022-10-16T03:14:20;3.10;;;1.03;;
19251;SDS011;9760;50.944;5.304;2022-10-16T03:16:45;5.47;;;0.90;;
19251;SDS011;9760;50.944;5.304;2022-10-16T03:19:11;3.90;;;0.80;;
19251;SDS011;9760;50.944;5.304;2022-10-16T03:21:36;6.73;;;0.83;;
19251;SDS011;9760;50.944;5.304;2022-10-16T03:24:02;5.13;;;1.00;;
19251;SDS011;9760;50.944;5.304;2022-10-16T03:26:28;2.73;;;1.03;;
19251;SDS011;9760;50.944;5.304;2022-10-16T03:28:53;8.30;;;0.93;;
19251;SDS011;9760;50.944;5.304;2022-10-16T03:31:19;3.80;;;1.10;;
19251;SDS011;9760;50.944;5.304;2022-10-16T03:33:44;1.83;;;0.80;;
19251;SDS011;9760;50.944;5.304;2022-10-16T03:36:10;4.77;;;1.03;;
19251;SDS011;9760;50.944;5.304;2022-10-16T03:38:36;2.17;;;1.00;;
19251;SDS011;9760;50.944;5.304;2022-10-16T03:41:01;1.13;;;0.80;;
19251;SDS011;9760;50.944;5.304;2022-10-16T03:43:27;2.00;;;1.10;;
19251;SDS011;9760;50.944;5.304;2022-10-16T03:45:53;5.67;;;1.00;;
19251;SDS011;9760;50.944;5.304;2022-10-16T03:48:18;2.93;;;1.20;;
19251;SDS011;9760;50.944;5.304;2022-10-16T03:50:44;2.13;;;0.90;;
19251;SDS011;9760;50.944;5.304;2022-10-16T03:53:11;4.70;;;0.90;;
19251;SDS011;9760;50.944;5.304;2022-10-16T03:55:37;2.33;;;0.80;;
19251;SDS011;9760;50.944;5.304;2022-10-16T03:58:02;1.20;;;0.90;;
19251;SDS011;9760;50.944;5.304;2022-10-16T04:00:28;4.87;;;1.20;;
19251;SDS011;9760;50.944;5.304;2022-10-16T04:02:53;1.90;;;1.27;;
19251;SDS011;9760;50.944;5.304;2022-10-16T04:05:19;1.70;;;1.10;;
19251;SDS011;9760;50.944;5.304;2022-10-16T04:07:45;2.60;;;0.93;;
19251;SDS011;9760;50.944;5.304;2022-10-16T04:10:10;2.83;;;1.10;;
19251;SDS011;9760;50.944;5.304;2022-10-16T04:12:36;4.87;;;1.30;;
19251;SDS011;9760;50.944;5.304;2022-10-16T04:15:01;2.77;;;1.10;;
19251;SDS011;9760;50.944;5.304;2022-10-16T04:17:27;3.00;;;1.50;;
19251;SDS011;9760;50.944;5.304;2022-10-16T04:19:53;3.33;;;1.30;;
19251;SDS011;9760;50.944;5.304;2022-10-16T04:22:18;2.37;;;1.20;;
19251;SDS011;9760;50.944;5.304;2022-10-16T04:24:44;1.73;;;1.13;;
19251;SDS011;9760;50.944;5.304;2022-10-16T04:27:09;2.83;;;1.30;;
19251;SDS011;9760;50.944;5.304;2022-10-16T04:29:35;3.47;;;1.57;;
19251;SDS011;9760;50.944;5.304;2022-10-16T04:32:01;5.33;;;1.30;;
19251;SDS011;9760;50.944;5.304;2022-10-16T04:34:26;2.77;;;1.50;;
19251;SDS011;9760;50.944;5.304;2022-10-16T04:36:52;3.40;;;1.23;;
19251;SDS011;9760;50.944;5.304;2022-10-16T04:39:17;2.60;;;1.50;;
19251;SDS011;9760;50.944;5.304;2022-10-16T04:41:43;2.10;;;1.40;;
19251;SDS011;9760;50.944;5.304;2022-10-16T04:44:09;3.37;;;1.40;;
19251;SDS011;9760;50.944;5.304;2022-10-16T04:46:34;3.07;;;1.60;;
19251;SDS011;9760;50.944;5.304;2022-10-16T04:49:00;1.13;;;1.03;;
19251;SDS011;9760;50.944;5.304;2022-10-16T04:51:26;1.83;;;1.37;;
19251;SDS011;9760;50.944;5.304;2022-10-16T04:53:52;3.97;;;1.80;;
19251;SDS011;9760;50.944;5.304;2022-10-16T04:56:19;8.67;;;1.90;;
19251;SDS011;9760;50.944;5.304;2022-10-16T04:58:46;3.10;;;1.70;;
19251;SDS011;9760;50.944;5.304;2022-10-16T05:01:12;4.20;;;1.70;;
19251;SDS011;9760;50.944;5.304;2022-10-16T05:03:38;6.47;;;1.80;;
19251;SDS011;9760;50.944;5.304;2022-10-16T05:06:05;5.93;;;1.80;;
19251;SDS011;9760;50.944;5.304;2022-10-16T05:08:31;3.67;;;1.70;;
19251;SDS011;9760;50.944;5.304;2022-10-16T05:10:56;3.30;;;1.73;;
19251;SDS011;9760;50.944;5.304;2022-10-16T05:13:22;5.70;;;2.17;;
19251;SDS011;9760;50.944;5.304;2022-10-16T05:15:48;4.80;;;1.40;;
19251;SDS011;9760;50.944;5.304;2022-10-16T05:18:14;4.17;;;2.07;;
19251;SDS011;9760;50.944;5.304;2022-10-16T05:20:41;4.13;;;1.93;;
19251;SDS011;9760;50.944;5.304;2022-10-16T05:23:07;3.80;;;1.90;;
19251;SDS011;9760;50.944;5.304;2022-10-16T05:25:35;3.33;;;1.70;;
19251;SDS011;9760;50.944;5.304;2022-10-16T05:28:01;4.80;;;2.30;;
19251;SDS011;9760;50.944;5.304;2022-10-16T05:30:27;3.67;;;1.90;;
19251;SDS011;9760;50.944;5.304;2022-10-16T05:32:52;4.83;;;2.40;;
19251;SDS011;9760;50.944;5.304;2022-10-16T05:35:18;5.77;;;2.53;;
19251;SDS011;9760;50.944;5.304;2022-10-16T05:37:45;4.97;;;2.67;;
19251;SDS011;9760;50.944;5.304;2022-10-16T05:40:11;3.43;;;2.53;;
19251;SDS011;9760;50.944;5.304;2022-10-16T05:42:38;7.60;;;2.70;;
19251;SDS011;9760;50.944;5.304;2022-10-16T05:45:04;5.30;;;2.40;;
19251;SDS011;9760;50.944;5.304;2022-10-16T05:47:31;5.97;;;2.73;;
19251;SDS011;9760;50.944;5.304;2022-10-16T05:49:56;9.00;;;2.50;;
19251;SDS011;9760;50.944;5.304;2022-10-16T05:52:22;6.47;;;2.07;;
19251;SDS011;9760;50.944;5.304;2022-10-16T05:54:47;5.87;;;2.50;;
19251;SDS011;9760;50.944;5.304;2022-10-16T05:57:13;5.03;;;2.40;;
19251;SDS011;9760;50.944;5.304;2022-10-16T05:59:39;4.43;;;2.20;;
19251;SDS011;9760;50.944;5.304;2022-10-16T06:02:04;6.77;;;2.43;;
19251;SDS011;9760;50.944;5.304;2022-10-16T06:04:30;5.27;;;2.33;;
19251;SDS011;9760;50.944;5.304;2022-10-16T06:06:58;2.93;;;2.10;;
19251;SDS011;9760;50.944;5.304;2022-10-16T06:09:25;8.33;;;2.37;;
19251;SDS011;9760;50.944;5.304;2022-10-16T06:11:51;5.77;;;2.73;;
19251;SDS011;9760;50.944;5.304;2022-10-16T06:14:16;4.97;;;2.67;;
19251;SDS011;9760;50.944;5.304;2022-10-16T06:16:42;7.17;;;3.37;;
19251;SDS011;9760;50.944;5.304;2022-10-16T06:19:08;5.27;;;2.87;;
19251;SDS011;9760;50.944;5.304;2022-10-16T06:21:34;6.47;;;2.60;;
19251;SDS011;9760;50.944;5.304;2022-10-16T06:24:00;6.10;;;2.23;;
19251;SDS011;9760;50.944;5.304;2022-10-16T06:26:26;6.13;;;2.07;;
19251;SDS011;9760;50.944;5.304;2022-10-16T06:28:54;7.27;;;2.37;;
19251;SDS011;9760;50.944;5.304;2022-10-16T06:31:21;4.50;;;2.00;;
19251;SDS011;9760;50.944;5.304;2022-10-16T06:33:50;3.53;;;2.60;;
19251;SDS011;9760;50.944;5.304;2022-10-16T06:36:16;6.30;;;2.33;;
19251;SDS011;9760;50.944;5.304;2022-10-16T06:38:42;7.40;;;2.60;;
19251;SDS011;9760;50.944;5.304;2022-10-16T06:41:10;5.97;;;2.50;;
19251;SDS011;9760;50.944;5.304;2022-10-16T06:43:37;4.13;;;2.43;;
19251;SDS011;9760;50.944;5.304;2022-10-16T06:46:04;9.67;;;3.20;;
19251;SDS011;9760;50.944;5.304;2022-10-16T06:48:32;7.93;;;3.07;;
19251;SDS011;9760;50.944;5.304;2022-10-16T06:50:59;5.80;;;3.30;;
19251;SDS011;9760;50.944;5.304;2022-10-16T06:53:27;4.10;;;2.60;;
19251;SDS011;9760;50.944;5.304;2022-10-16T06:55:55;4.00;;;2.43;;
19251;SDS011;9760;50.944;5.304;2022-10-16T06:58:21;6.27;;;2.93;;
19251;SDS011;9760;50.944;5.304;2022-10-16T07:00:47;6.00;;;2.40;;
19251;SDS011;9760;50.944;5.304;2022-10-16T07:03:13;7.70;;;2.47;;
19251;SDS011;9760;50.944;5.304;2022-10-16T07:05:39;6.00;;;2.13;;
19251;SDS011;9760;50.944;5.304;2022-10-16T07:08:08;4.70;;;2.43;;
19251;SDS011;9760;50.944;5.304;2022-10-16T07:10:34;3.40;;;2.23;;
19251;SDS011;9760;50.944;5.304;2022-10-16T07:13:00;4.70;;;2.10;;
19251;SDS011;9760;50.944;5.304;2022-10-16T07:15:26;10.13;;;2.90;;
19251;SDS011;9760;50.944;5.304;2022-10-16T07:17:52;5.93;;;2.50;;
19251;SDS011;9760;50.944;5.304;2022-10-16T07:20:17;5.70;;;2.50;;
19251;SDS011;9760;50.944;5.304;2022-10-16T07:22:43;4.20;;;2.03;;
19251;SDS011;9760;50.944;5.304;2022-10-16T07:25:09;3.23;;;1.83;;
19251;SDS011;9760;50.944;5.304;2022-10-16T07:27:36;9.13;;;2.17;;
19251;SDS011;9760;50.944;5.304;2022-10-16T07:30:02;5.77;;;2.10;;
19251;SDS011;9760;50.944;5.304;2022-10-16T07:32:28;6.27;;;1.80;;
19251;SDS011;9760;50.944;5.304;2022-10-16T07:34:54;3.70;;;1.97;;
19251;SDS011;9760;50.944;5.304;2022-10-16T07:37:20;2.07;;;1.50;;
19251;SDS011;9760;50.944;5.304;2022-10-16T07:39:46;6.53;;;2.00;;
19251;SDS011;9760;50.944;5.304;2022-10-16T07:42:12;3.73;;;1.80;;
19251;SDS011;9760;50.944;5.304;2022-10-16T07:44:37;4.13;;;1.87;;
19251;SDS011;9760;50.944;5.304;2022-10-16T07:47:03;4.07;;;1.77;;
19251;SDS011;9760;50.944;5.304;2022-10-16T07:49:29;7.63;;;1.80;;
19251;SDS011;9760;50.944;5.304;2022-10-16T07:51:54;3.33;;;1.80;;
19251;SDS011;9760;50.944;5.304;2022-10-16T07:54:20;7.03;;;1.60;;
19251;SDS011;9760;50.944;5.304;2022-10-16T07:56:45;7.20;;;2.10;;
19251;SDS011;9760;50.944;5.304;2022-10-16T07:59:11;5.03;;;1.80;;
19251;SDS011;9760;50.944;5.304;2022-10-16T08:01:37;3.67;;;1.30;;
19251;SDS011;9760;50.944;5.304;2022-10-16T08:04:02;2.83;;;1.33;;
19251;SDS011;9760;50.944;5.304;2022-10-16T08:06:28;3.67;;;1.50;;
19251;SDS011;9760;50.944;5.304;2022-10-16T08:08:54;6.70;;;1.53;;
19251;SDS011;9760;50.944;5.304;2022-10-16T08:11:21;6.37;;;1.50;;
19251;SDS011;9760;50.944;5.304;2022-10-16T08:13:47;6.63;;;1.63;;
19251;SDS011;9760;50.944;5.304;2022-10-16T08:16:13;3.57;;;1.40;;
19251;SDS011;9760;50.944;5.304;2022-10-16T08:18:39;4.53;;;1.63;;
19251;SDS011;9760;50.944;5.304;2022-10-16T08:21:06;2.27;;;1.37;;
19251;SDS011;9760;50.944;5.304;2022-10-16T08:23:33;5.47;;;1.40;;
19251;SDS011;9760;50.944;5.304;2022-10-16T08:26:03;5.07;;;1.40;;
19251;SDS011;9760;50.944;5.304;2022-10-16T08:28:31;3.67;;;1.40;;
19251;SDS011;9760;50.944;5.304;2022-10-16T08:31:04;4.10;;;1.23;;
19251;SDS011;9760;50.944;5.304;2022-10-16T08:33:30;5.97;;;1.60;;
19251;SDS011;9760;50.944;5.304;2022-10-16T08:35:56;5.37;;;1.57;;
19251;SDS011;9760;50.944;5.304;2022-10-16T08:38:22;3.87;;;1.47;;
19251;SDS011;9760;50.944;5.304;2022-10-16T08:40:47;4.70;;;1.13;;
19251;SDS011;9760;50.944;5.304;2022-10-16T08:48:49;5.17;;;1.20;;
19251;SDS011;9760;50.944;5.304;2022-10-16T08:53:56;9.90;;;1.43;;
19251;SDS011;9760;50.944;5.304;2022-10-16T08:56:23;4.93;;;1.77;;
19251;SDS011;9760;50.944;5.304;2022-10-16T08:58:50;5.77;;;1.50;;
19251;SDS011;9760;50.944;5.304;2022-10-16T09:01:17;5.83;;;1.90;;
19251;SDS011;9760;50.944;5.304;2022-10-16T09:06:50;4.10;;;1.50;;
19251;SDS011;9760;50.944;5.304;2022-10-16T09:15:16;3.33;;;1.10;;
19251;SDS011;9760;50.944;5.304;2022-10-16T09:17:56;4.63;;;1.43;;
19251;SDS011;9760;50.944;5.304;2022-10-16T09:23:00;2.20;;;1.10;;
19251;SDS011;9760;50.944;5.304;2022-10-16T09:25:29;7.27;;;1.17;;
19251;SDS011;9760;50.944;5.304;2022-10-16T09:27:56;2.93;;;0.90;;
19251;SDS011;9760;50.944;5.304;2022-10-16T09:30:22;5.40;;;1.50;;
19251;SDS011;9760;50.944;5.304;2022-10-16T09:32:51;5.50;;;1.10;;
19251;SDS011;9760;50.944;5.304;2022-10-16T09:35:21;2.73;;;1.07;;
19251;SDS011;9760;50.944;5.304;2022-10-16T09:37:58;8.10;;;1.50;;
19251;SDS011;9760;50.944;5.304;2022-10-16T09:40:28;4.57;;;1.20;;
19251;SDS011;9760;50.944;5.304;2022-10-16T09:45:56;6.37;;;1.50;;
19251;SDS011;9760;50.944;5.304;2022-10-16T09:51:43;4.90;;;1.13;;
19251;SDS011;9760;50.944;5.304;2022-10-16T09:56:35;7.33;;;1.60;;
19251;SDS011;9760;50.944;5.304;2022-10-16T09:59:10;4.63;;;1.03;;
19251;SDS011;9760;50.944;5.304;2022-10-16T10:01:41;6.17;;;1.10;;
19251;SDS011;9760;50.944;5.304;2022-10-16T10:04:12;11.97;;;2.47;;
19251;SDS011;9760;50.944;5.304;2022-10-16T10:06:45;5.23;;;1.70;;
19251;SDS011;9760;50.944;5.304;2022-10-16T10:09:20;4.87;;;1.50;;
19251;SDS011;9760;50.944;5.304;2022-10-16T10:14:16;3.63;;;1.40;;
19251;SDS011;9760;50.944;5.304;2022-10-16T10:16:46;8.63;;;1.30;;
19251;SDS011;9760;50.944;5.304;2022-10-16T10:19:21;2.37;;;0.80;;
19251;SDS011;9760;50.944;5.304;2022-10-16T10:21:49;5.30;;;1.17;;
19251;SDS011;9760;50.944;5.304;2022-10-16T10:24:16;6.07;;;1.10;;
19251;SDS011;9760;50.944;5.304;2022-10-16T10:27:05;5.03;;;1.00;;
19251;SDS011;9760;50.944;5.304;2022-10-16T10:29:41;4.97;;;0.80;;
19251;SDS011;9760;50.944;5.304;2022-10-16T10:32:38;5.50;;;1.10;;
19251;SDS011;9760;50.944;5.304;2022-10-16T10:35:29;7.17;;;1.20;;
19251;SDS011;9760;50.944;5.304;2022-10-16T10:58:00;2.97;;;1.10;;
19251;SDS011;9760;50.944;5.304;2022-10-16T11:03:37;1.80;;;0.87;;
19251;SDS011;9760;50.944;5.304;2022-10-16T11:06:20;7.40;;;1.00;;
19251;SDS011;9760;50.944;5.304;2022-10-16T11:11:49;10.03;;;1.50;;
19251;SDS011;9760;50.944;5.304;2022-10-16T11:14:18;9.60;;;1.13;;
19251;SDS011;9760;50.944;5.304;2022-10-16T11:17:01;6.43;;;1.43;;
19251;SDS011;9760;50.944;5.304;2022-10-16T11:22:14;4.30;;;0.93;;
19251;SDS011;9760;50.944;5.304;2022-10-16T11:27:57;6.93;;;1.10;;
19251;SDS011;9760;50.944;5.304;2022-10-16T11:30:34;2.53;;;1.10;;
19251;SDS011;9760;50.944;5.304;2022-10-16T11:35:57;5.60;;;1.00;;
19251;SDS011;9760;50.944;5.304;2022-10-16T11:44:16;4.10;;;1.50;;
19251;SDS011;9760;50.944;5.304;2022-10-16T11:49:43;5.53;;;1.10;;
19251;SDS011;9760;50.944;5.304;2022-10-16T11:52:25;3.03;;;0.70;;
19251;SDS011;9760;50.944;5.304;2022-10-16T11:55:01;6.17;;;0.80;;
19251;SDS011;9760;50.944;5.304;2022-10-16T11:57:45;5.50;;;0.90;;
19251;SDS011;9760;50.944;5.304;2022-10-16T12:08:20;2.73;;;1.07;;
19251;SDS011;9760;50.944;5.304;2022-10-16T12:10:46;7.67;;;1.10;;
19251;SDS011;9760;50.944;5.304;2022-10-16T12:13:32;5.53;;;0.90;;
19251;SDS011;9760;50.944;5.304;2022-10-16T12:16:07;2.30;;;0.80;;
19251;SDS011;9760;50.944;5.304;2022-10-16T12:18:46;8.67;;;1.10;;
19251;SDS011;9760;50.944;5.304;2022-10-16T12:21:14;7.50;;;0.83;;
19251;SDS011;9760;50.944;5.304;2022-10-16T12:23:51;4.27;;;0.63;;
19251;SDS011;9760;50.944;5.304;2022-10-16T12:26:28;3.30;;;0.80;;
19251;SDS011;9760;50.944;5.304;2022-10-16T12:30:02;3.30;;;0.67;;
19251;SDS011;9760;50.944;5.304;2022-10-16T12:32:02;9.20;;;3.37;;
19251;SDS011;9760;50.944;5.304;2022-10-16T12:34:32;3.33;;;0.80;;
19251;SDS011;9760;50.944;5.304;2022-10-16T12:37:13;4.53;;;1.53;;
19251;SDS011;9760;50.944;5.304;2022-10-16T12:39:43;4.97;;;1.17;;
19251;SDS011;9760;50.944;5.304;2022-10-16T12:44:54;2.23;;;0.90;;
19251;SDS011;9760;50.944;5.304;2022-10-16T12:49:53;5.00;;;0.67;;
19251;SDS011;9760;50.944;5.304;2022-10-16T12:52:36;3.70;;;0.87;;
19251;SDS011;9760;50.944;5.304;2022-10-16T12:55:04;2.67;;;0.70;;
19251;SDS011;9760;50.944;5.304;2022-10-16T12:57:50;7.77;;;0.90;;
19251;SDS011;9760;50.944;5.304;2022-10-16T13:11:17;5.97;;;0.90;;
19251;SDS011;9760;50.944;5.304;2022-10-16T13:13:51;2.23;;;0.67;;
19251;SDS011;9760;50.944;5.304;2022-10-16T13:16:57;4.90;;;0.83;;
19251;SDS011;9760;50.944;5.304;2022-10-16T13:22:33;6.47;;;1.10;;
19251;SDS011;9760;50.944;5.304;2022-10-16T13:35:31;5.60;;;0.93;;
19251;SDS011;9760;50.944;5.304;2022-10-16T13:40:57;7.20;;;0.90;;
19251;SDS011;9760;50.944;5.304;2022-10-16T13:46:04;3.97;;;1.80;;
19251;SDS011;9760;50.944;5.304;2022-10-16T13:48:57;2.97;;;1.50;;
19251;SDS011;9760;50.944;5.304;2022-10-16T13:51:22;2.43;;;0.70;;
19251;SDS011;9760;50.944;5.304;2022-10-16T13:53:48;7.53;;;2.40;;
19251;SDS011;9760;50.944;5.304;2022-10-16T13:56:15;1.83;;;0.90;;
19251;SDS011;9760;50.944;5.304;2022-10-16T13:58:42;1.63;;;0.80;;
19251;SDS011;9760;50.944;5.304;2022-10-16T14:03:48;1.57;;;0.40;;
19251;SDS011;9760;50.944;5.304;2022-10-16T14:06:15;4.87;;;2.23;;
19251;SDS011;9760;50.944;5.304;2022-10-16T14:08:44;2.20;;;0.83;;
19251;SDS011;9760;50.944;5.304;2022-10-16T14:11:13;4.40;;;0.80;;
19251;SDS011;9760;50.944;5.304;2022-10-16T14:13:46;2.37;;;0.50;;
19251;SDS011;9760;50.944;5.304;2022-10-16T14:16:23;3.83;;;1.43;;
19251;SDS011;9760;50.944;5.304;2022-10-16T14:18:57;5.10;;;1.40;;
19251;SDS011;9760;50.944;5.304;2022-10-16T14:21:25;8.00;;;1.30;;
19251;SDS011;9760;50.944;5.304;2022-10-16T14:23:51;5.43;;;1.27;;
19251;SDS011;9760;50.944;5.304;2022-10-16T14:26:19;3.67;;;0.80;;
19251;SDS011;9760;50.944;5.304;2022-10-16T14:28:47;4.23;;;0.80;;
19251;SDS011;9760;50.944;5.304;2022-10-16T14:31:23;3.27;;;1.57;;
19251;SDS011;9760;50.944;5.304;2022-10-16T14:33:50;6.20;;;0.80;;
19251;SDS011;9760;50.944;5.304;2022-10-16T14:36:15;2.57;;;0.70;;
19251;SDS011;9760;50.944;5.304;2022-10-16T14:38:56;2.83;;;0.50;;
19251;SDS011;9760;50.944;5.304;2022-10-16T14:41:27;1.07;;;0.80;;
19251;SDS011;9760;50.944;5.304;2022-10-16T14:43:55;7.10;;;1.00;;
19251;SDS011;9760;50.944;5.304;2022-10-16T14:46:33;2.77;;;0.73;;
19251;SDS011;9760;50.944;5.304;2022-10-16T14:51:36;2.60;;;0.60;;
19251;SDS011;9760;50.944;5.304;2022-10-16T14:54:03;4.33;;;1.70;;
19251;SDS011;9760;50.944;5.304;2022-10-16T14:56:30;5.27;;;2.33;;
19251;SDS011;9760;50.944;5.304;2022-10-16T14:58:59;2.90;;;0.70;;
19251;SDS011;9760;50.944;5.304;2022-10-16T15:01:25;2.70;;;1.13;;
19251;SDS011;9760;50.944;5.304;2022-10-16T15:03:51;2.47;;;0.77;;
19251;SDS011;9760;50.944;5.304;2022-10-16T15:06:20;2.43;;;0.97;;
19251;SDS011;9760;50.944;5.304;2022-10-16T15:08:46;5.93;;;1.90;;
19251;SDS011;9760;50.944;5.304;2022-10-16T15:11:12;3.23;;;1.03;;
19251;SDS011;9760;50.944;5.304;2022-10-16T15:13:43;5.03;;;1.50;;
19251;SDS011;9760;50.944;5.304;2022-10-16T15:16:12;3.07;;;1.20;;
19251;SDS011;9760;50.944;5.304;2022-10-16T15:18:39;3.23;;;0.70;;
19251;SDS011;9760;50.944;5.304;2022-10-16T15:21:05;1.97;;;0.60;;
19251;SDS011;9760;50.944;5.304;2022-10-16T15:23:31;3.13;;;0.60;;
19251;SDS011;9760;50.944;5.304;2022-10-16T15:25:57;8.10;;;2.23;;
19251;SDS011;9760;50.944;5.304;2022-10-16T15:28:23;5.60;;;0.90;;
19251;SDS011;9760;50.944;5.304;2022-10-16T15:30:51;5.00;;;1.07;;
19251;SDS011;9760;50.944;5.304;2022-10-16T15:33:20;4.93;;;0.90;;
19251;SDS011;9760;50.944;5.304;2022-10-16T15:35:48;2.23;;;0.90;;
19251;SDS011;9760;50.944;5.304;2022-10-16T15:38:16;4.13;;;0.80;;
19251;SDS011;9760;50.944;5.304;2022-10-16T15:40:43;4.40;;;1.30;;
19251;SDS011;9760;50.944;5.304;2022-10-16T15:43:10;3.50;;;1.03;;
19251;SDS011;9760;50.944;5.304;2022-10-16T15:45:36;3.73;;;0.97;;
19251;SDS011;9760;50.944;5.304;2022-10-16T15:48:02;3.13;;;1.03;;
19251;SDS011;9760;50.944;5.304;2022-10-16T15:50:28;2.70;;;1.00;;
19251;SDS011;9760;50.944;5.304;2022-10-16T15:52:55;3.13;;;1.00;;
19251;SDS011;9760;50.944;5.304;2022-10-16T15:55:20;4.27;;;1.57;;
19251;SDS011;9760;50.944;5.304;2022-10-16T15:57:46;9.87;;;1.47;;
19251;SDS011;9760;50.944;5.304;2022-10-16T16:00:13;8.83;;;1.23;;
19251;SDS011;9760;50.944;5.304;2022-10-16T16:02:41;3.37;;;1.33;;
19251;SDS011;9760;50.944;5.304;2022-10-16T16:05:08;7.47;;;1.40;;
19251;SDS011;9760;50.944;5.304;2022-10-16T16:07:38;3.13;;;1.53;;
19251;SDS011;9760;50.944;5.304;2022-10-16T16:10:06;5.10;;;1.90;;
19251;SDS011;9760;50.944;5.304;2022-10-16T16:12:34;4.20;;;1.33;;
19251;SDS011;9760;50.944;5.304;2022-10-16T16:15:01;4.40;;;1.20;;
19251;SDS011;9760;50.944;5.304;2022-10-16T16:17:28;5.13;;;1.23;;
19251;SDS011;9760;50.944;5.304;2022-10-16T16:19:55;6.83;;;1.20;;
19251;SDS011;9760;50.944;5.304;2022-10-16T16:22:21;5.60;;;1.10;;
19251;SDS011;9760;50.944;5.304;2022-10-16T16:24:47;3.67;;;1.03;;
19251;SDS011;9760;50.944;5.304;2022-10-16T16:27:12;1.17;;;0.70;;
19251;SDS011;9760;50.944;5.304;2022-10-16T16:29:38;5.20;;;1.27;;
19251;SDS011;9760;50.944;5.304;2022-10-16T16:32:04;3.50;;;0.90;;
19251;SDS011;9760;50.944;5.304;2022-10-16T16:34:30;11.43;;;2.37;;
19251;SDS011;9760;50.944;5.304;2022-10-16T16:36:55;6.97;;;2.20;;
19251;SDS011;9760;50.944;5.304;2022-10-16T16:39:21;5.90;;;1.70;;
19251;SDS011;9760;50.944;5.304;2022-10-16T16:41:47;4.93;;;1.77;;
19251;SDS011;9760;50.944;5.304;2022-10-16T16:44:13;3.23;;;1.60;;
19251;SDS011;9760;50.944;5.304;2022-10-16T16:46:40;10.60;;;2.33;;
19251;SDS011;9760;50.944;5.304;2022-10-16T16:49:09;7.67;;;2.13;;
19251;SDS011;9760;50.944;5.304;2022-10-16T16:51:36;6.20;;;2.00;;
19251;SDS011;9760;50.944;5.304;2022-10-16T16:54:02;8.87;;;1.70;;
19251;SDS011;9760;50.944;5.304;2022-10-16T16:56:28;8.17;;;1.70;;
19251;SDS011;9760;50.944;5.304;2022-10-16T16:58:54;7.90;;;1.50;;
19251;SDS011;9760;50.944;5.304;2022-10-16T17:01:22;7.60;;;1.97;;
19251;SDS011;9760;50.944;5.304;2022-10-16T17:03:50;4.57;;;1.90;;
19251;SDS011;9760;50.944;5.304;2022-10-16T17:06:18;9.00;;;2.67;;
19251;SDS011;9760;50.944;5.304;2022-10-16T17:08:45;5.90;;;2.30;;
19251;SDS011;9760;50.944;5.304;2022-10-16T17:11:14;5.00;;;1.70;;
19251;SDS011;9760;50.944;5.304;2022-10-16T17:13:41;7.70;;;2.40;;
19251;SDS011;9760;50.944;5.304;2022-10-16T17:16:07;14.00;;;2.60;;
19251;SDS011;9760;50.944;5.304;2022-10-16T17:18:33;9.13;;;2.70;;
19251;SDS011;9760;50.944;5.304;2022-10-16T17:21:00;19.83;;;2.93;;
19251;SDS011;9760;50.944;5.304;2022-10-16T17:23:28;6.93;;;2.90;;